sensor_id;sensor_type;location;lat;lon;timestamp;P1;durP1;ratioP1;P2;durP2;ratioP2
22754;SDS011;11544;42.020;23.094;2024-02-21T00:00:27;14.55;;;7.75;;
22754;SDS011;11544;42.020;23.094;2024-02-21T00:02:54;12.38;;;7.25;;
22754;SDS011;11544;42.020;23.094;2024-02-21T00:05:25;14.77;;;8.60;;
22754;SDS011;11544;42.020;23.094;2024-02-21T00:07:52;11.00;;;7.85;;
22754;SDS011;11544;42.020;23.094;2024-02-21T00:10:19;12.57;;;7.80;;
22754;SDS011;11544;42.020;23.094;2024-02-21T00:12:47;13.77;;;7.43;;
22754;SDS011;11544;42.020;23.094;2024-02-21T00:15:13;9.85;;;6.20;;
22754;SDS011;11544;42.020;23.094;2024-02-21T00:17:40;10.73;;;6.90;;
22754;SDS011;11544;42.020;23.094;2024-02-21T00:20:07;12.82;;;6.63;;
22754;SDS011;11544;42.020;23.094;2024-02-21T00:22:34;12.75;;;7.00;;
22754;SDS011;11544;42.020;23.094;2024-02-21T00:25:01;8.98;;;6.05;;
22754;SDS011;11544;42.020;23.094;2024-02-21T00:27:28;12.38;;;6.70;;
22754;SDS011;11544;42.020;23.094;2024-02-21T00:29:55;9.85;;;6.10;;
22754;SDS011;11544;42.020;23.094;2024-02-21T00:32:22;10.68;;;6.40;;
22754;SDS011;11544;42.020;23.094;2024-02-21T00:34:49;8.38;;;5.60;;
22754;SDS011;11544;42.020;23.094;2024-02-21T00:37:15;10.32;;;6.38;;
22754;SDS011;11544;42.020;23.094;2024-02-21T00:39:42;9.35;;;5.78;;
22754;SDS011;11544;42.020;23.094;2024-02-21T00:42:09;7.20;;;5.00;;
22754;SDS011;11544;42.020;23.094;2024-02-21T00:44:36;10.80;;;6.20;;
22754;SDS011;11544;42.020;23.094;2024-02-21T00:47:03;8.52;;;5.32;;
22754;SDS011;11544;42.020;23.094;2024-02-21T00:49:29;9.77;;;5.53;;
22754;SDS011;11544;42.020;23.094;2024-02-21T00:51:56;8.27;;;5.72;;
22754;SDS011;11544;42.020;23.094;2024-02-21T00:54:23;8.82;;;5.60;;
22754;SDS011;11544;42.020;23.094;2024-02-21T00:56:52;9.05;;;6.05;;
22754;SDS011;11544;42.020;23.094;2024-02-21T00:59:18;14.02;;;6.43;;
22754;SDS011;11544;42.020;23.094;2024-02-21T01:01:46;10.73;;;6.53;;
22754;SDS011;11544;42.020;23.094;2024-02-21T01:04:13;9.75;;;6.22;;
22754;SDS011;11544;42.020;23.094;2024-02-21T01:06:40;10.02;;;6.15;;
22754;SDS011;11544;42.020;23.094;2024-02-21T01:09:13;9.48;;;5.80;;
22754;SDS011;11544;42.020;23.094;2024-02-21T01:11:40;7.55;;;5.28;;
22754;SDS011;11544;42.020;23.094;2024-02-21T01:14:07;10.68;;;6.32;;
22754;SDS011;11544;42.020;23.094;2024-02-21T01:16:34;9.43;;;5.45;;
22754;SDS011;11544;42.020;23.094;2024-02-21T01:19:01;11.07;;;6.10;;
22754;SDS011;11544;42.020;23.094;2024-02-21T01:21:28;11.13;;;7.30;;
22754;SDS011;11544;42.020;23.094;2024-02-21T01:23:55;12.90;;;6.78;;
22754;SDS011;11544;42.020;23.094;2024-02-21T01:26:22;11.02;;;6.82;;
22754;SDS011;11544;42.020;23.094;2024-02-21T01:28:48;8.82;;;5.93;;
22754;SDS011;11544;42.020;23.094;2024-02-21T01:31:15;12.50;;;7.88;;
22754;SDS011;11544;42.020;23.094;2024-02-21T01:33:42;11.70;;;6.93;;
22754;SDS011;11544;42.020;23.094;2024-02-21T01:36:09;17.02;;;9.80;;
22754;SDS011;11544;42.020;23.094;2024-02-21T01:38:36;15.35;;;9.18;;
22754;SDS011;11544;42.020;23.094;2024-02-21T01:41:03;16.20;;;10.05;;
22754;SDS011;11544;42.020;23.094;2024-02-21T01:43:30;11.52;;;7.32;;
22754;SDS011;11544;42.020;23.094;2024-02-21T01:45:57;14.93;;;7.30;;
22754;SDS011;11544;42.020;23.094;2024-02-21T01:48:24;9.02;;;6.32;;
22754;SDS011;11544;42.020;23.094;2024-02-21T01:50:52;14.77;;;6.70;;
22754;SDS011;11544;42.020;23.094;2024-02-21T01:53:21;10.38;;;6.78;;
22754;SDS011;11544;42.020;23.094;2024-02-21T01:55:50;9.98;;;6.85;;
22754;SDS011;11544;42.020;23.094;2024-02-21T01:58:18;19.13;;;10.75;;
22754;SDS011;11544;42.020;23.094;2024-02-21T02:00:46;16.70;;;10.65;;
22754;SDS011;11544;42.020;23.094;2024-02-21T02:03:14;16.08;;;10.25;;
22754;SDS011;11544;42.020;23.094;2024-02-21T02:08:13;28.30;;;14.77;;
22754;SDS011;11544;42.020;23.094;2024-02-21T02:10:41;22.85;;;13.50;;
22754;SDS011;11544;42.020;23.094;2024-02-21T02:13:09;28.40;;;14.93;;
22754;SDS011;11544;42.020;23.094;2024-02-21T02:15:43;27.70;;;16.33;;
22754;SDS011;11544;42.020;23.094;2024-02-21T02:18:13;31.70;;;16.00;;
22754;SDS011;11544;42.020;23.094;2024-02-21T02:20:42;26.17;;;15.50;;
22754;SDS011;11544;42.020;23.094;2024-02-21T02:25:54;32.65;;;18.00;;
22754;SDS011;11544;42.020;23.094;2024-02-21T02:28:21;33.63;;;17.45;;
22754;SDS011;11544;42.020;23.094;2024-02-21T02:30:49;29.02;;;15.80;;
22754;SDS011;11544;42.020;23.094;2024-02-21T02:33:16;24.38;;;14.65;;
22754;SDS011;11544;42.020;23.094;2024-02-21T02:35:46;21.48;;;13.27;;
22754;SDS011;11544;42.020;23.094;2024-02-21T02:38:13;24.50;;;15.38;;
22754;SDS011;11544;42.020;23.094;2024-02-21T02:40:40;29.02;;;14.80;;
22754;SDS011;11544;42.020;23.094;2024-02-21T02:43:08;22.23;;;12.90;;
22754;SDS011;11544;42.020;23.094;2024-02-21T02:45:35;19.92;;;10.50;;
22754;SDS011;11544;42.020;23.094;2024-02-21T02:48:02;16.65;;;8.90;;
22754;SDS011;11544;42.020;23.094;2024-02-21T02:50:30;16.75;;;9.35;;
22754;SDS011;11544;42.020;23.094;2024-02-21T02:52:57;15.25;;;8.88;;
22754;SDS011;11544;42.020;23.094;2024-02-21T02:55:24;15.75;;;9.85;;
22754;SDS011;11544;42.020;23.094;2024-02-21T02:57:53;14.07;;;8.30;;
22754;SDS011;11544;42.020;23.094;2024-02-21T03:00:20;13.85;;;7.38;;
22754;SDS011;11544;42.020;23.094;2024-02-21T03:02:48;12.88;;;8.00;;
22754;SDS011;11544;42.020;23.094;2024-02-21T03:05:17;13.05;;;8.38;;
22754;SDS011;11544;42.020;23.094;2024-02-21T03:07:45;13.18;;;7.68;;
22754;SDS011;11544;42.020;23.094;2024-02-21T03:10:13;14.15;;;7.88;;
22754;SDS011;11544;42.020;23.094;2024-02-21T03:12:43;12.43;;;7.22;;
22754;SDS011;11544;42.020;23.094;2024-02-21T03:15:11;13.15;;;7.97;;
22754;SDS011;11544;42.020;23.094;2024-02-21T03:17:38;11.82;;;7.90;;
22754;SDS011;11544;42.020;23.094;2024-02-21T03:20:06;14.52;;;7.47;;
22754;SDS011;11544;42.020;23.094;2024-02-21T03:22:38;10.07;;;7.05;;
22754;SDS011;11544;42.020;23.094;2024-02-21T03:25:07;9.82;;;6.85;;
22754;SDS011;11544;42.020;23.094;2024-02-21T03:27:34;11.93;;;7.53;;
22754;SDS011;11544;42.020;23.094;2024-02-21T03:30:01;13.95;;;8.63;;
22754;SDS011;11544;42.020;23.094;2024-02-21T03:32:28;11.25;;;7.85;;
22754;SDS011;11544;42.020;23.094;2024-02-21T03:34:56;16.00;;;9.45;;
22754;SDS011;11544;42.020;23.094;2024-02-21T03:37:23;18.45;;;12.50;;
22754;SDS011;11544;42.020;23.094;2024-02-21T03:39:50;26.63;;;14.82;;
22754;SDS011;11544;42.020;23.094;2024-02-21T03:42:17;26.02;;;15.57;;
22754;SDS011;11544;42.020;23.094;2024-02-21T03:44:44;26.38;;;15.68;;
22754;SDS011;11544;42.020;23.094;2024-02-21T03:47:11;25.95;;;15.88;;
22754;SDS011;11544;42.020;23.094;2024-02-21T03:49:38;28.88;;;15.88;;
22754;SDS011;11544;42.020;23.094;2024-02-21T03:52:05;25.50;;;15.68;;
22754;SDS011;11544;42.020;23.094;2024-02-21T03:54:32;28.20;;;15.57;;
22754;SDS011;11544;42.020;23.094;2024-02-21T03:56:59;28.25;;;16.20;;
22754;SDS011;11544;42.020;23.094;2024-02-21T03:59:26;23.75;;;13.20;;
22754;SDS011;11544;42.020;23.094;2024-02-21T04:01:53;13.38;;;8.70;;
22754;SDS011;11544;42.020;23.094;2024-02-21T04:04:20;12.73;;;8.15;;
22754;SDS011;11544;42.020;23.094;2024-02-21T04:06:47;16.23;;;8.75;;
22754;SDS011;11544;42.020;23.094;2024-02-21T04:09:15;26.08;;;8.98;;
22754;SDS011;11544;42.020;23.094;2024-02-21T04:11:42;12.63;;;8.90;;
22754;SDS011;11544;42.020;23.094;2024-02-21T04:14:09;16.63;;;8.70;;
22754;SDS011;11544;42.020;23.094;2024-02-21T04:16:38;13.25;;;8.43;;
22754;SDS011;11544;42.020;23.094;2024-02-21T04:19:06;14.65;;;9.32;;
22754;SDS011;11544;42.020;23.094;2024-02-21T04:21:34;21.30;;;10.15;;
22754;SDS011;11544;42.020;23.094;2024-02-21T04:24:01;15.52;;;9.13;;
22754;SDS011;11544;42.020;23.094;2024-02-21T04:26:30;15.80;;;9.77;;
22754;SDS011;11544;42.020;23.094;2024-02-21T04:28:56;17.67;;;9.65;;
22754;SDS011;11544;42.020;23.094;2024-02-21T04:31:23;19.08;;;10.00;;
22754;SDS011;11544;42.020;23.094;2024-02-21T04:33:51;19.10;;;9.38;;
22754;SDS011;11544;42.020;23.094;2024-02-21T04:36:18;16.05;;;8.93;;
22754;SDS011;11544;42.020;23.094;2024-02-21T04:38:45;18.27;;;8.30;;
22754;SDS011;11544;42.020;23.094;2024-02-21T04:41:12;16.98;;;9.60;;
22754;SDS011;11544;42.020;23.094;2024-02-21T04:43:39;16.63;;;9.75;;
22754;SDS011;11544;42.020;23.094;2024-02-21T04:46:06;14.57;;;9.30;;
22754;SDS011;11544;42.020;23.094;2024-02-21T04:48:32;17.98;;;9.77;;
22754;SDS011;11544;42.020;23.094;2024-02-21T04:50:59;20.05;;;11.07;;
22754;SDS011;11544;42.020;23.094;2024-02-21T04:53:26;16.27;;;10.02;;
22754;SDS011;11544;42.020;23.094;2024-02-21T04:55:53;13.65;;;9.30;;
22754;SDS011;11544;42.020;23.094;2024-02-21T04:58:20;16.60;;;9.45;;
22754;SDS011;11544;42.020;23.094;2024-02-21T05:00:47;19.00;;;9.18;;
22754;SDS011;11544;42.020;23.094;2024-02-21T05:03:14;13.05;;;8.48;;
22754;SDS011;11544;42.020;23.094;2024-02-21T05:05:41;16.05;;;8.95;;
22754;SDS011;11544;42.020;23.094;2024-02-21T05:08:08;18.85;;;9.07;;
22754;SDS011;11544;42.020;23.094;2024-02-21T05:10:36;18.20;;;9.55;;
22754;SDS011;11544;42.020;23.094;2024-02-21T05:13:03;13.20;;;8.38;;
22754;SDS011;11544;42.020;23.094;2024-02-21T05:15:31;15.05;;;8.93;;
22754;SDS011;11544;42.020;23.094;2024-02-21T05:17:58;16.50;;;8.77;;
22754;SDS011;11544;42.020;23.094;2024-02-21T05:20:25;18.35;;;9.23;;
22754;SDS011;11544;42.020;23.094;2024-02-21T05:22:52;14.05;;;8.43;;
22754;SDS011;11544;42.020;23.094;2024-02-21T05:25:18;15.18;;;9.15;;
22754;SDS011;11544;42.020;23.094;2024-02-21T05:27:45;14.88;;;9.52;;
22754;SDS011;11544;42.020;23.094;2024-02-21T05:30:12;15.82;;;9.05;;
22754;SDS011;11544;42.020;23.094;2024-02-21T05:32:39;14.82;;;8.23;;
22754;SDS011;11544;42.020;23.094;2024-02-21T05:35:06;27.48;;;10.35;;
22754;SDS011;11544;42.020;23.094;2024-02-21T05:37:34;14.88;;;8.80;;
22754;SDS011;11544;42.020;23.094;2024-02-21T05:40:00;16.00;;;8.45;;
22754;SDS011;11544;42.020;23.094;2024-02-21T05:42:27;15.57;;;8.65;;
22754;SDS011;11544;42.020;23.094;2024-02-21T05:44:54;16.80;;;8.43;;
22754;SDS011;11544;42.020;23.094;2024-02-21T05:47:21;14.93;;;8.43;;
22754;SDS011;11544;42.020;23.094;2024-02-21T05:49:48;16.02;;;9.10;;
22754;SDS011;11544;42.020;23.094;2024-02-21T05:52:15;13.95;;;8.23;;
22754;SDS011;11544;42.020;23.094;2024-02-21T05:54:42;12.55;;;8.50;;
22754;SDS011;11544;42.020;23.094;2024-02-21T05:57:09;15.60;;;7.88;;
22754;SDS011;11544;42.020;23.094;2024-02-21T05:59:37;14.02;;;8.50;;
22754;SDS011;11544;42.020;23.094;2024-02-21T06:02:06;13.88;;;8.25;;
22754;SDS011;11544;42.020;23.094;2024-02-21T06:04:33;13.90;;;8.20;;
22754;SDS011;11544;42.020;23.094;2024-02-21T06:07:01;16.48;;;9.30;;
22754;SDS011;11544;42.020;23.094;2024-02-21T06:09:28;13.25;;;8.13;;
22754;SDS011;11544;42.020;23.094;2024-02-21T06:11:55;13.43;;;8.70;;
22754;SDS011;11544;42.020;23.094;2024-02-21T06:14:22;14.40;;;8.10;;
22754;SDS011;11544;42.020;23.094;2024-02-21T06:16:49;14.43;;;9.00;;
22754;SDS011;11544;42.020;23.094;2024-02-21T06:19:16;15.13;;;8.32;;
22754;SDS011;11544;42.020;23.094;2024-02-21T06:21:43;10.65;;;7.30;;
22754;SDS011;11544;42.020;23.094;2024-02-21T06:24:11;10.32;;;6.75;;
22754;SDS011;11544;42.020;23.094;2024-02-21T06:26:39;13.25;;;8.02;;
22754;SDS011;11544;42.020;23.094;2024-02-21T06:29:07;14.00;;;7.57;;
22754;SDS011;11544;42.020;23.094;2024-02-21T06:31:35;11.55;;;7.50;;
22754;SDS011;11544;42.020;23.094;2024-02-21T06:34:02;15.68;;;8.50;;
22754;SDS011;11544;42.020;23.094;2024-02-21T06:36:29;16.83;;;7.68;;
22754;SDS011;11544;42.020;23.094;2024-02-21T06:38:56;15.10;;;8.38;;
22754;SDS011;11544;42.020;23.094;2024-02-21T06:41:23;13.07;;;8.27;;
22754;SDS011;11544;42.020;23.094;2024-02-21T06:43:50;13.65;;;8.18;;
22754;SDS011;11544;42.020;23.094;2024-02-21T06:46:24;15.88;;;8.10;;
22754;SDS011;11544;42.020;23.094;2024-02-21T06:48:52;14.85;;;8.65;;
22754;SDS011;11544;42.020;23.094;2024-02-21T06:51:19;14.15;;;8.85;;
22754;SDS011;11544;42.020;23.094;2024-02-21T06:53:46;16.23;;;9.15;;
22754;SDS011;11544;42.020;23.094;2024-02-21T06:56:13;16.75;;;8.07;;
22754;SDS011;11544;42.020;23.094;2024-02-21T06:58:40;14.13;;;8.07;;
22754;SDS011;11544;42.020;23.094;2024-02-21T07:01:07;13.48;;;8.50;;
22754;SDS011;11544;42.020;23.094;2024-02-21T07:03:35;13.27;;;8.43;;
22754;SDS011;11544;42.020;23.094;2024-02-21T07:06:02;17.92;;;8.57;;
22754;SDS011;11544;42.020;23.094;2024-02-21T07:08:29;18.60;;;8.55;;
22754;SDS011;11544;42.020;23.094;2024-02-21T07:10:56;14.15;;;8.10;;
22754;SDS011;11544;42.020;23.094;2024-02-21T07:13:23;33.40;;;17.60;;
22754;SDS011;11544;42.020;23.094;2024-02-21T07:15:50;45.35;;;23.73;;
22754;SDS011;11544;42.020;23.094;2024-02-21T07:18:18;57.95;;;26.88;;
22754;SDS011;11544;42.020;23.094;2024-02-21T07:20:45;51.50;;;24.30;;
22754;SDS011;11544;42.020;23.094;2024-02-21T07:23:12;55.58;;;23.58;;
22754;SDS011;11544;42.020;23.094;2024-02-21T07:25:39;44.53;;;23.58;;
22754;SDS011;11544;42.020;23.094;2024-02-21T07:28:06;36.50;;;21.02;;
22754;SDS011;11544;42.020;23.094;2024-02-21T07:30:33;42.83;;;22.67;;
22754;SDS011;11544;42.020;23.094;2024-02-21T07:33:00;43.28;;;22.67;;
22754;SDS011;11544;42.020;23.094;2024-02-21T07:35:27;50.65;;;25.02;;
22754;SDS011;11544;42.020;23.094;2024-02-21T07:37:54;41.72;;;20.38;;
22754;SDS011;11544;42.020;23.094;2024-02-21T07:40:21;31.92;;;18.52;;
22754;SDS011;11544;42.020;23.094;2024-02-21T07:42:48;33.20;;;19.50;;
22754;SDS011;11544;42.020;23.094;2024-02-21T07:45:17;35.67;;;21.35;;
22754;SDS011;11544;42.020;23.094;2024-02-21T07:47:50;37.10;;;20.42;;
22754;SDS011;11544;42.020;23.094;2024-02-21T07:50:17;36.15;;;19.92;;
22754;SDS011;11544;42.020;23.094;2024-02-21T07:52:44;36.22;;;20.40;;
22754;SDS011;11544;42.020;23.094;2024-02-21T07:55:11;34.17;;;16.63;;
22754;SDS011;11544;42.020;23.094;2024-02-21T07:57:38;29.42;;;16.15;;
22754;SDS011;11544;42.020;23.094;2024-02-21T08:00:05;30.27;;;17.27;;
22754;SDS011;11544;42.020;23.094;2024-02-21T08:02:35;27.23;;;16.30;;
22754;SDS011;11544;42.020;23.094;2024-02-21T08:05:03;30.02;;;17.60;;
22754;SDS011;11544;42.020;23.094;2024-02-21T08:07:30;30.73;;;17.27;;
22754;SDS011;11544;42.020;23.094;2024-02-21T08:09:57;40.55;;;18.88;;
22754;SDS011;11544;42.020;23.094;2024-02-21T08:12:24;32.90;;;17.92;;
22754;SDS011;11544;42.020;23.094;2024-02-21T08:14:51;32.13;;;17.13;;
22754;SDS011;11544;42.020;23.094;2024-02-21T08:17:18;29.85;;;17.25;;
22754;SDS011;11544;42.020;23.094;2024-02-21T08:19:44;32.03;;;17.15;;
22754;SDS011;11544;42.020;23.094;2024-02-21T08:22:11;25.70;;;15.32;;
22754;SDS011;11544;42.020;23.094;2024-02-21T08:24:38;26.25;;;16.83;;
22754;SDS011;11544;42.020;23.094;2024-02-21T08:27:05;28.80;;;16.63;;
22754;SDS011;11544;42.020;23.094;2024-02-21T08:29:32;27.23;;;16.42;;
22754;SDS011;11544;42.020;23.094;2024-02-21T08:31:59;22.55;;;15.63;;
22754;SDS011;11544;42.020;23.094;2024-02-21T08:34:26;29.70;;;17.70;;
22754;SDS011;11544;42.020;23.094;2024-02-21T08:36:55;32.22;;;19.52;;
22754;SDS011;11544;42.020;23.094;2024-02-21T08:39:22;23.83;;;14.70;;
22754;SDS011;11544;42.020;23.094;2024-02-21T08:41:49;24.73;;;14.77;;
22754;SDS011;11544;42.020;23.094;2024-02-21T08:44:23;25.40;;;14.10;;
22754;SDS011;11544;42.020;23.094;2024-02-21T08:46:54;21.48;;;13.82;;
22754;SDS011;11544;42.020;23.094;2024-02-21T08:49:21;21.52;;;11.82;;
22754;SDS011;11544;42.020;23.094;2024-02-21T08:51:48;26.55;;;15.93;;
22754;SDS011;11544;42.020;23.094;2024-02-21T08:54:15;19.33;;;11.43;;
22754;SDS011;11544;42.020;23.094;2024-02-21T08:56:43;21.15;;;13.15;;
22754;SDS011;11544;42.020;23.094;2024-02-21T08:59:10;23.63;;;12.80;;
22754;SDS011;11544;42.020;23.094;2024-02-21T09:01:37;21.10;;;13.38;;
22754;SDS011;11544;42.020;23.094;2024-02-21T09:04:04;19.27;;;11.32;;
22754;SDS011;11544;42.020;23.094;2024-02-21T09:06:32;21.73;;;12.40;;
22754;SDS011;11544;42.020;23.094;2024-02-21T09:09:00;18.75;;;11.85;;
22754;SDS011;11544;42.020;23.094;2024-02-21T09:11:27;18.42;;;12.23;;
22754;SDS011;11544;42.020;23.094;2024-02-21T09:13:55;23.52;;;11.85;;
22754;SDS011;11544;42.020;23.094;2024-02-21T09:16:22;18.17;;;11.25;;
22754;SDS011;11544;42.020;23.094;2024-02-21T09:18:50;16.70;;;11.27;;
22754;SDS011;11544;42.020;23.094;2024-02-21T09:21:17;16.73;;;9.50;;
22754;SDS011;11544;42.020;23.094;2024-02-21T09:23:45;17.27;;;10.07;;
22754;SDS011;11544;42.020;23.094;2024-02-21T09:26:12;21.25;;;11.80;;
22754;SDS011;11544;42.020;23.094;2024-02-21T09:28:45;16.30;;;9.75;;
22754;SDS011;11544;42.020;23.094;2024-02-21T09:31:12;17.15;;;10.63;;
22754;SDS011;11544;42.020;23.094;2024-02-21T09:33:39;14.68;;;10.48;;
22754;SDS011;11544;42.020;23.094;2024-02-21T09:36:06;14.98;;;10.05;;
22754;SDS011;11544;42.020;23.094;2024-02-21T09:38:33;17.48;;;11.57;;
22754;SDS011;11544;42.020;23.094;2024-02-21T09:41:03;16.20;;;9.88;;
22754;SDS011;11544;42.020;23.094;2024-02-21T09:43:45;13.30;;;9.25;;
22754;SDS011;11544;42.020;23.094;2024-02-21T09:46:16;12.70;;;8.02;;
22754;SDS011;11544;42.020;23.094;2024-02-21T09:48:53;11.27;;;7.63;;
22754;SDS011;11544;42.020;23.094;2024-02-21T09:51:42;10.82;;;6.03;;
22754;SDS011;11544;42.020;23.094;2024-02-21T09:54:11;12.73;;;5.45;;
22754;SDS011;11544;42.020;23.094;2024-02-21T09:56:44;9.48;;;5.00;;
22754;SDS011;11544;42.020;23.094;2024-02-21T09:59:15;9.90;;;5.13;;
22754;SDS011;11544;42.020;23.094;2024-02-21T10:01:43;18.35;;;4.93;;
22754;SDS011;11544;42.020;23.094;2024-02-21T10:04:13;13.50;;;5.10;;
22754;SDS011;11544;42.020;23.094;2024-02-21T10:06:41;11.95;;;4.70;;
22754;SDS011;11544;42.020;23.094;2024-02-21T10:09:08;11.13;;;6.15;;
22754;SDS011;11544;42.020;23.094;2024-02-21T10:11:35;10.77;;;4.90;;
22754;SDS011;11544;42.020;23.094;2024-02-21T10:14:04;6.47;;;4.00;;
22754;SDS011;11544;42.020;23.094;2024-02-21T10:16:32;10.52;;;4.55;;
22754;SDS011;11544;42.020;23.094;2024-02-21T10:19:00;10.07;;;3.97;;
22754;SDS011;11544;42.020;23.094;2024-02-21T10:21:27;8.38;;;3.90;;
22754;SDS011;11544;42.020;23.094;2024-02-21T10:23:54;6.78;;;3.80;;
22754;SDS011;11544;42.020;23.094;2024-02-21T10:26:21;6.28;;;3.65;;
22754;SDS011;11544;42.020;23.094;2024-02-21T10:28:49;6.85;;;4.10;;
22754;SDS011;11544;42.020;23.094;2024-02-21T10:31:22;5.13;;;3.63;;
22754;SDS011;11544;42.020;23.094;2024-02-21T10:33:55;8.38;;;4.38;;
22754;SDS011;11544;42.020;23.094;2024-02-21T10:36:23;11.95;;;4.53;;
22754;SDS011;11544;42.020;23.094;2024-02-21T10:38:54;13.70;;;4.30;;
22754;SDS011;11544;42.020;23.094;2024-02-21T10:41:22;5.18;;;3.50;;
22754;SDS011;11544;42.020;23.094;2024-02-21T10:43:53;8.73;;;3.67;;
22754;SDS011;11544;42.020;23.094;2024-02-21T10:46:22;7.13;;;2.90;;
22754;SDS011;11544;42.020;23.094;2024-02-21T10:49:14;5.90;;;2.50;;
22754;SDS011;11544;42.020;23.094;2024-02-21T10:51:46;6.82;;;3.40;;
22754;SDS011;11544;42.020;23.094;2024-02-21T10:57:12;6.40;;;3.28;;
22754;SDS011;11544;42.020;23.094;2024-02-21T10:59:40;7.65;;;3.72;;
22754;SDS011;11544;42.020;23.094;2024-02-21T11:02:09;5.50;;;3.55;;
22754;SDS011;11544;42.020;23.094;2024-02-21T11:04:36;6.13;;;3.85;;
22754;SDS011;11544;42.020;23.094;2024-02-21T11:07:04;8.80;;;6.03;;
22754;SDS011;11544;42.020;23.094;2024-02-21T11:09:36;12.63;;;4.43;;
22754;SDS011;11544;42.020;23.094;2024-02-21T11:12:05;8.77;;;3.95;;
22754;SDS011;11544;42.020;23.094;2024-02-21T11:14:33;7.43;;;3.45;;
22754;SDS011;11544;42.020;23.094;2024-02-21T11:17:18;10.23;;;4.47;;
22754;SDS011;11544;42.020;23.094;2024-02-21T11:19:47;8.63;;;3.50;;
22754;SDS011;11544;42.020;23.094;2024-02-21T11:22:15;4.07;;;2.95;;
22754;SDS011;11544;42.020;23.094;2024-02-21T11:24:44;6.82;;;3.17;;
22754;SDS011;11544;42.020;23.094;2024-02-21T11:27:11;7.07;;;3.72;;
22754;SDS011;11544;42.020;23.094;2024-02-21T11:29:46;7.03;;;3.85;;
22754;SDS011;11544;42.020;23.094;2024-02-21T11:32:14;6.97;;;2.47;;
22754;SDS011;11544;42.020;23.094;2024-02-21T11:34:52;4.70;;;2.75;;
22754;SDS011;11544;42.020;23.094;2024-02-21T11:37:34;8.02;;;3.30;;
22754;SDS011;11544;42.020;23.094;2024-02-21T11:40:06;10.13;;;4.47;;
22754;SDS011;11544;42.020;23.094;2024-02-21T11:42:38;8.10;;;3.47;;
22754;SDS011;11544;42.020;23.094;2024-02-21T11:45:06;8.35;;;3.42;;
22754;SDS011;11544;42.020;23.094;2024-02-21T11:47:35;5.95;;;3.47;;
22754;SDS011;11544;42.020;23.094;2024-02-21T11:50:09;6.57;;;3.20;;
22754;SDS011;11544;42.020;23.094;2024-02-21T11:52:38;10.43;;;3.97;;
22754;SDS011;11544;42.020;23.094;2024-02-21T11:55:05;13.10;;;4.78;;
22754;SDS011;11544;42.020;23.094;2024-02-21T11:57:36;16.33;;;5.07;;
22754;SDS011;11544;42.020;23.094;2024-02-21T12:00:17;7.53;;;3.70;;
22754;SDS011;11544;42.020;23.094;2024-02-21T12:02:48;7.38;;;3.28;;
22754;SDS011;11544;42.020;23.094;2024-02-21T12:05:16;7.60;;;3.13;;
22754;SDS011;11544;42.020;23.094;2024-02-21T12:07:46;7.13;;;2.95;;
22754;SDS011;11544;42.020;23.094;2024-02-21T12:10:13;6.72;;;2.95;;
22754;SDS011;11544;42.020;23.094;2024-02-21T12:12:40;6.82;;;2.92;;
22754;SDS011;11544;42.020;23.094;2024-02-21T12:15:07;5.25;;;3.08;;
22754;SDS011;11544;42.020;23.094;2024-02-21T12:17:39;6.70;;;3.00;;
22754;SDS011;11544;42.020;23.094;2024-02-21T12:20:07;5.82;;;2.70;;
22754;SDS011;11544;42.020;23.094;2024-02-21T12:22:36;6.32;;;2.60;;
22754;SDS011;11544;42.020;23.094;2024-02-21T12:25:21;4.35;;;2.10;;
22754;SDS011;11544;42.020;23.094;2024-02-21T12:27:49;4.45;;;2.50;;
22754;SDS011;11544;42.020;23.094;2024-02-21T12:30:16;6.10;;;2.42;;
22754;SDS011;11544;42.020;23.094;2024-02-21T12:32:43;8.77;;;4.03;;
22754;SDS011;11544;42.020;23.094;2024-02-21T12:35:10;7.15;;;3.78;;
22754;SDS011;11544;42.020;23.094;2024-02-21T12:37:38;6.35;;;3.75;;
22754;SDS011;11544;42.020;23.094;2024-02-21T12:40:06;7.63;;;3.63;;
22754;SDS011;11544;42.020;23.094;2024-02-21T12:42:34;9.90;;;4.38;;
22754;SDS011;11544;42.020;23.094;2024-02-21T12:45:01;4.75;;;3.08;;
22754;SDS011;11544;42.020;23.094;2024-02-21T12:47:29;6.85;;;3.53;;
22754;SDS011;11544;42.020;23.094;2024-02-21T12:49:57;7.55;;;2.80;;
22754;SDS011;11544;42.020;23.094;2024-02-21T12:52:24;6.15;;;2.35;;
22754;SDS011;11544;42.020;23.094;2024-02-21T12:54:51;3.17;;;2.05;;
22754;SDS011;11544;42.020;23.094;2024-02-21T12:57:18;6.97;;;3.00;;
22754;SDS011;11544;42.020;23.094;2024-02-21T12:59:45;9.88;;;2.65;;
22754;SDS011;11544;42.020;23.094;2024-02-21T13:02:12;6.43;;;2.92;;
22754;SDS011;11544;42.020;23.094;2024-02-21T13:04:39;6.07;;;2.47;;
22754;SDS011;11544;42.020;23.094;2024-02-21T13:07:08;5.05;;;2.17;;
22754;SDS011;11544;42.020;23.094;2024-02-21T13:09:34;3.72;;;1.80;;
22754;SDS011;11544;42.020;23.094;2024-02-21T13:12:02;4.97;;;2.30;;
22754;SDS011;11544;42.020;23.094;2024-02-21T13:14:29;5.53;;;2.03;;
22754;SDS011;11544;42.020;23.094;2024-02-21T13:16:56;5.72;;;2.20;;
22754;SDS011;11544;42.020;23.094;2024-02-21T13:19:23;10.10;;;2.50;;
22754;SDS011;11544;42.020;23.094;2024-02-21T13:21:50;3.22;;;1.85;;
22754;SDS011;11544;42.020;23.094;2024-02-21T13:24:17;4.45;;;1.70;;
22754;SDS011;11544;42.020;23.094;2024-02-21T13:26:44;3.38;;;1.90;;
22754;SDS011;11544;42.020;23.094;2024-02-21T13:29:11;8.38;;;2.30;;
22754;SDS011;11544;42.020;23.094;2024-02-21T13:31:38;12.07;;;3.10;;
22754;SDS011;11544;42.020;23.094;2024-02-21T13:34:05;6.68;;;2.60;;
22754;SDS011;11544;42.020;23.094;2024-02-21T13:36:37;4.60;;;2.25;;
22754;SDS011;11544;42.020;23.094;2024-02-21T13:39:03;7.18;;;2.60;;
22754;SDS011;11544;42.020;23.094;2024-02-21T13:41:34;7.32;;;2.92;;
22754;SDS011;11544;42.020;23.094;2024-02-21T13:44:01;8.27;;;2.75;;
22754;SDS011;11544;42.020;23.094;2024-02-21T13:46:30;15.43;;;3.55;;
22754;SDS011;11544;42.020;23.094;2024-02-21T13:49:02;7.50;;;2.92;;
22754;SDS011;11544;42.020;23.094;2024-02-21T13:51:34;6.10;;;2.53;;
22754;SDS011;11544;42.020;23.094;2024-02-21T13:54:04;6.80;;;2.65;;
22754;SDS011;11544;42.020;23.094;2024-02-21T13:56:31;7.53;;;3.22;;
22754;SDS011;11544;42.020;23.094;2024-02-21T13:58:58;7.22;;;3.30;;
22754;SDS011;11544;42.020;23.094;2024-02-21T14:01:44;6.00;;;3.35;;
22754;SDS011;11544;42.020;23.094;2024-02-21T14:04:11;7.30;;;3.92;;
22754;SDS011;11544;42.020;23.094;2024-02-21T14:06:38;5.15;;;3.08;;
22754;SDS011;11544;42.020;23.094;2024-02-21T14:09:10;5.53;;;2.83;;
22754;SDS011;11544;42.020;23.094;2024-02-21T14:11:37;8.30;;;3.25;;
22754;SDS011;11544;42.020;23.094;2024-02-21T14:14:05;8.95;;;3.88;;
22754;SDS011;11544;42.020;23.094;2024-02-21T14:16:32;10.50;;;3.67;;
22754;SDS011;11544;42.020;23.094;2024-02-21T14:19:00;9.80;;;3.55;;
22754;SDS011;11544;42.020;23.094;2024-02-21T14:21:27;12.32;;;5.80;;
22754;SDS011;11544;42.020;23.094;2024-02-21T14:23:55;12.07;;;3.78;;
22754;SDS011;11544;42.020;23.094;2024-02-21T14:26:23;15.30;;;3.95;;
22754;SDS011;11544;42.020;23.094;2024-02-21T14:28:50;11.23;;;3.55;;
22754;SDS011;11544;42.020;23.094;2024-02-21T14:31:17;7.88;;;3.13;;
22754;SDS011;11544;42.020;23.094;2024-02-21T14:33:43;14.00;;;4.05;;